sensor_id;sensor_type;location;lat;lon;timestamp;P1;durP1;ratioP1;P2;durP2;ratioP2
43744;SDS011;29359;53.048;8.732;2023-02-08T00:01:53;30.15;;;18.10;;
43744;SDS011;29359;53.048;8.732;2023-02-08T00:03:55;31.75;;;18.15;;
43744;SDS011;29359;53.048;8.732;2023-02-08T00:05:56;30.85;;;17.75;;
43744;SDS011;29359;53.048;8.732;2023-02-08T00:07:58;30.92;;;17.55;;
43744;SDS011;29359;53.048;8.732;2023-02-08T00:09:59;35.13;;;18.13;;
43744;SDS011;29359;53.048;8.732;2023-02-08T00:12:00;30.23;;;18.35;;
43744;SDS011;29359;53.048;8.732;2023-02-08T00:14:02;32.33;;;18.73;;
43744;SDS011;29359;53.048;8.732;2023-02-08T00:16:04;32.10;;;18.70;;
43744;SDS011;29359;53.048;8.732;2023-02-08T00:18:05;30.25;;;17.65;;
43744;SDS011;29359;53.048;8.732;2023-02-08T00:20:07;32.22;;;19.35;;
43744;SDS011;29359;53.048;8.732;2023-02-08T00:22:09;31.20;;;18.63;;
43744;SDS011;29359;53.048;8.732;2023-02-08T00:24:11;30.75;;;17.38;;
43744;SDS011;29359;53.048;8.732;2023-02-08T00:26:12;34.85;;;18.85;;
43744;SDS011;29359;53.048;8.732;2023-02-08T00:28:15;31.17;;;18.48;;
43744;SDS011;29359;53.048;8.732;2023-02-08T00:30:18;28.60;;;16.88;;
43744;SDS011;29359;53.048;8.732;2023-02-08T00:32:20;29.42;;;18.02;;
43744;SDS011;29359;53.048;8.732;2023-02-08T00:34:22;28.08;;;17.40;;
43744;SDS011;29359;53.048;8.732;2023-02-08T00:36:23;31.88;;;18.77;;
43744;SDS011;29359;53.048;8.732;2023-02-08T00:38:25;31.83;;;17.95;;
43744;SDS011;29359;53.048;8.732;2023-02-08T00:40:27;30.80;;;18.85;;
43744;SDS011;29359;53.048;8.732;2023-02-08T00:42:28;29.92;;;17.73;;
43744;SDS011;29359;53.048;8.732;2023-02-08T00:44:30;30.98;;;18.85;;
43744;SDS011;29359;53.048;8.732;2023-02-08T00:46:31;29.33;;;17.80;;
43744;SDS011;29359;53.048;8.732;2023-02-08T00:48:33;31.23;;;18.15;;
43744;SDS011;29359;53.048;8.732;2023-02-08T00:50:35;28.83;;;18.35;;
43744;SDS011;29359;53.048;8.732;2023-02-08T00:52:36;33.00;;;17.13;;
43744;SDS011;29359;53.048;8.732;2023-02-08T00:54:38;30.15;;;16.35;;
43744;SDS011;29359;53.048;8.732;2023-02-08T00:56:42;29.98;;;17.38;;
43744;SDS011;29359;53.048;8.732;2023-02-08T00:58:44;29.60;;;16.75;;
43744;SDS011;29359;53.048;8.732;2023-02-08T01:00:46;26.40;;;16.38;;
43744;SDS011;29359;53.048;8.732;2023-02-08T01:02:50;27.52;;;16.55;;
43744;SDS011;29359;53.048;8.732;2023-02-08T01:04:51;27.98;;;16.20;;
43744;SDS011;29359;53.048;8.732;2023-02-08T01:06:53;28.45;;;17.48;;
43744;SDS011;29359;53.048;8.732;2023-02-08T01:08:54;29.98;;;16.50;;
43744;SDS011;29359;53.048;8.732;2023-02-08T01:11:06;31.27;;;16.73;;
43744;SDS011;29359;53.048;8.732;2023-02-08T01:13:13;29.88;;;17.02;;
43744;SDS011;29359;53.048;8.732;2023-02-08T01:15:14;26.85;;;16.65;;
43744;SDS011;29359;53.048;8.732;2023-02-08T01:17:16;26.85;;;15.88;;
43744;SDS011;29359;53.048;8.732;2023-02-08T01:19:17;28.33;;;15.95;;
43744;SDS011;29359;53.048;8.732;2023-02-08T01:21:20;30.00;;;16.58;;
43744;SDS011;29359;53.048;8.732;2023-02-08T01:23:23;28.63;;;16.13;;
43744;SDS011;29359;53.048;8.732;2023-02-08T01:25:26;25.48;;;15.30;;
43744;SDS011;29359;53.048;8.732;2023-02-08T01:27:27;25.45;;;15.25;;
43744;SDS011;29359;53.048;8.732;2023-02-08T01:29:29;28.83;;;15.98;;
43744;SDS011;29359;53.048;8.732;2023-02-08T01:31:31;32.92;;;15.60;;
43744;SDS011;29359;53.048;8.732;2023-02-08T01:33:35;25.65;;;15.55;;
43744;SDS011;29359;53.048;8.732;2023-02-08T01:35:36;24.40;;;14.57;;
43744;SDS011;29359;53.048;8.732;2023-02-08T01:37:38;25.05;;;15.20;;
43744;SDS011;29359;53.048;8.732;2023-02-08T01:39:39;28.15;;;15.18;;
43744;SDS011;29359;53.048;8.732;2023-02-08T01:41:42;23.60;;;15.63;;
43744;SDS011;29359;53.048;8.732;2023-02-08T01:46:18;24.13;;;14.05;;
43744;SDS011;29359;53.048;8.732;2023-02-08T01:50:44;26.50;;;14.27;;
43744;SDS011;29359;53.048;8.732;2023-02-08T01:52:54;23.25;;;15.10;;
43744;SDS011;29359;53.048;8.732;2023-02-08T01:54:57;28.15;;;14.60;;
43744;SDS011;29359;53.048;8.732;2023-02-08T01:57:03;30.40;;;15.30;;
43744;SDS011;29359;53.048;8.732;2023-02-08T01:59:06;25.13;;;15.45;;
43744;SDS011;29359;53.048;8.732;2023-02-08T02:01:13;25.92;;;14.98;;
43744;SDS011;29359;53.048;8.732;2023-02-08T02:03:19;28.10;;;14.88;;
43744;SDS011;29359;53.048;8.732;2023-02-08T02:05:23;26.83;;;15.27;;
43744;SDS011;29359;53.048;8.732;2023-02-08T02:07:28;23.83;;;14.80;;
43744;SDS011;29359;53.048;8.732;2023-02-08T02:09:39;25.35;;;15.05;;
43744;SDS011;29359;53.048;8.732;2023-02-08T02:11:45;25.63;;;15.50;;
43744;SDS011;29359;53.048;8.732;2023-02-08T02:13:46;25.20;;;14.43;;
43744;SDS011;29359;53.048;8.732;2023-02-08T02:15:48;28.67;;;14.38;;
43744;SDS011;29359;53.048;8.732;2023-02-08T02:17:50;24.42;;;14.85;;
43744;SDS011;29359;53.048;8.732;2023-02-08T02:27:31;26.38;;;15.02;;
43744;SDS011;29359;53.048;8.732;2023-02-08T02:34:56;24.08;;;13.75;;
43744;SDS011;29359;53.048;8.732;2023-02-08T02:39:45;24.55;;;13.98;;
43744;SDS011;29359;53.048;8.732;2023-02-08T02:42:01;23.10;;;13.63;;
43744;SDS011;29359;53.048;8.732;2023-02-08T02:46:39;24.17;;;14.50;;
43744;SDS011;29359;53.048;8.732;2023-02-08T02:51:14;26.02;;;15.27;;
43744;SDS011;29359;53.048;8.732;2023-02-08T02:53:25;28.20;;;14.45;;
43744;SDS011;29359;53.048;8.732;2023-02-08T02:55:35;25.20;;;13.55;;
43744;SDS011;29359;53.048;8.732;2023-02-08T02:57:43;30.17;;;14.30;;
43744;SDS011;29359;53.048;8.732;2023-02-08T02:59:47;24.63;;;14.35;;
43744;SDS011;29359;53.048;8.732;2023-02-08T03:01:48;28.38;;;14.57;;
43744;SDS011;29359;53.048;8.732;2023-02-08T03:03:50;30.73;;;14.73;;
43744;SDS011;29359;53.048;8.732;2023-02-08T03:05:56;25.58;;;13.90;;
43744;SDS011;29359;53.048;8.732;2023-02-08T03:15:14;23.08;;;14.18;;
43744;SDS011;29359;53.048;8.732;2023-02-08T03:19:40;28.77;;;14.60;;
43744;SDS011;29359;53.048;8.732;2023-02-08T03:24:12;23.17;;;13.95;;
43744;SDS011;29359;53.048;8.732;2023-02-08T03:26:22;25.58;;;14.63;;
43744;SDS011;29359;53.048;8.732;2023-02-08T03:28:35;25.13;;;14.57;;
43744;SDS011;29359;53.048;8.732;2023-02-08T03:31:00;25.02;;;14.77;;
43744;SDS011;29359;53.048;8.732;2023-02-08T03:33:22;27.52;;;14.85;;
43744;SDS011;29359;53.048;8.732;2023-02-08T03:35:38;24.63;;;14.43;;
43744;SDS011;29359;53.048;8.732;2023-02-08T03:37:45;23.48;;;14.23;;
43744;SDS011;29359;53.048;8.732;2023-02-08T03:39:51;24.98;;;14.13;;
43744;SDS011;29359;53.048;8.732;2023-02-08T03:42:00;27.60;;;15.32;;
43744;SDS011;29359;53.048;8.732;2023-02-08T03:44:10;31.38;;;14.95;;
43744;SDS011;29359;53.048;8.732;2023-02-08T03:46:19;25.08;;;14.45;;
43744;SDS011;29359;53.048;8.732;2023-02-08T03:48:24;23.20;;;13.35;;
43744;SDS011;29359;53.048;8.732;2023-02-08T03:50:28;29.55;;;14.70;;
43744;SDS011;29359;53.048;8.732;2023-02-08T03:52:33;24.13;;;14.82;;
43744;SDS011;29359;53.048;8.732;2023-02-08T03:54:38;26.48;;;14.00;;
43744;SDS011;29359;53.048;8.732;2023-02-08T03:59:16;27.30;;;15.10;;
43744;SDS011;29359;53.048;8.732;2023-02-08T04:01:26;30.05;;;14.98;;
43744;SDS011;29359;53.048;8.732;2023-02-08T04:03:31;24.17;;;14.27;;
43744;SDS011;29359;53.048;8.732;2023-02-08T04:05:35;30.10;;;15.00;;
43744;SDS011;29359;53.048;8.732;2023-02-08T04:07:37;24.83;;;15.13;;
43744;SDS011;29359;53.048;8.732;2023-02-08T04:09:38;25.70;;;15.10;;
43744;SDS011;29359;53.048;8.732;2023-02-08T04:11:40;26.58;;;15.32;;
43744;SDS011;29359;53.048;8.732;2023-02-08T04:13:41;23.33;;;14.13;;
43744;SDS011;29359;53.048;8.732;2023-02-08T04:15:43;28.30;;;16.27;;
43744;SDS011;29359;53.048;8.732;2023-02-08T04:17:45;24.38;;;14.13;;
43744;SDS011;29359;53.048;8.732;2023-02-08T04:19:46;31.73;;;15.50;;
43744;SDS011;29359;53.048;8.732;2023-02-08T04:21:48;26.02;;;16.33;;
43744;SDS011;29359;53.048;8.732;2023-02-08T04:23:49;25.80;;;15.85;;
43744;SDS011;29359;53.048;8.732;2023-02-08T04:25:50;30.10;;;15.82;;
43744;SDS011;29359;53.048;8.732;2023-02-08T04:27:53;27.63;;;15.55;;
43744;SDS011;29359;53.048;8.732;2023-02-08T04:29:55;30.95;;;16.25;;
43744;SDS011;29359;53.048;8.732;2023-02-08T04:31:56;29.00;;;16.25;;
43744;SDS011;29359;53.048;8.732;2023-02-08T04:33:58;33.25;;;17.42;;
43744;SDS011;29359;53.048;8.732;2023-02-08T04:35:59;30.38;;;16.67;;
43744;SDS011;29359;53.048;8.732;2023-02-08T04:38:00;28.90;;;14.63;;
43744;SDS011;29359;53.048;8.732;2023-02-08T04:40:02;26.75;;;15.50;;
43744;SDS011;29359;53.048;8.732;2023-02-08T04:42:04;29.58;;;16.20;;
43744;SDS011;29359;53.048;8.732;2023-02-08T04:44:05;25.17;;;15.52;;
43744;SDS011;29359;53.048;8.732;2023-02-08T04:46:07;28.63;;;15.82;;
43744;SDS011;29359;53.048;8.732;2023-02-08T04:48:08;27.42;;;15.73;;
43744;SDS011;29359;53.048;8.732;2023-02-08T04:50:12;31.55;;;16.35;;
43744;SDS011;29359;53.048;8.732;2023-02-08T04:52:13;29.90;;;15.68;;
43744;SDS011;29359;53.048;8.732;2023-02-08T04:54:15;26.33;;;15.77;;
43744;SDS011;29359;53.048;8.732;2023-02-08T04:56:16;26.70;;;15.55;;
43744;SDS011;29359;53.048;8.732;2023-02-08T04:58:18;26.98;;;15.73;;
43744;SDS011;29359;53.048;8.732;2023-02-08T05:00:19;30.65;;;16.60;;
43744;SDS011;29359;53.048;8.732;2023-02-08T05:02:21;28.63;;;15.27;;
43744;SDS011;29359;53.048;8.732;2023-02-08T05:04:22;32.83;;;17.17;;
43744;SDS011;29359;53.048;8.732;2023-02-08T05:06:24;29.20;;;16.60;;
43744;SDS011;29359;53.048;8.732;2023-02-08T05:08:25;28.20;;;16.05;;
43744;SDS011;29359;53.048;8.732;2023-02-08T05:10:28;30.38;;;16.55;;
43744;SDS011;29359;53.048;8.732;2023-02-08T05:12:29;33.13;;;16.33;;
43744;SDS011;29359;53.048;8.732;2023-02-08T05:14:31;29.08;;;15.90;;
43744;SDS011;29359;53.048;8.732;2023-02-08T05:16:32;29.13;;;16.15;;
43744;SDS011;29359;53.048;8.732;2023-02-08T05:18:34;30.42;;;17.08;;
43744;SDS011;29359;53.048;8.732;2023-02-08T05:20:35;31.98;;;16.83;;
43744;SDS011;29359;53.048;8.732;2023-02-08T05:22:37;34.20;;;17.05;;
43744;SDS011;29359;53.048;8.732;2023-02-08T05:24:38;29.63;;;16.35;;
43744;SDS011;29359;53.048;8.732;2023-02-08T05:26:40;37.67;;;17.70;;
43744;SDS011;29359;53.048;8.732;2023-02-08T05:28:42;28.27;;;16.90;;
43744;SDS011;29359;53.048;8.732;2023-02-08T05:30:44;34.60;;;16.63;;
43744;SDS011;29359;53.048;8.732;2023-02-08T05:32:46;26.98;;;16.20;;
43744;SDS011;29359;53.048;8.732;2023-02-08T05:34:48;34.17;;;16.55;;
43744;SDS011;29359;53.048;8.732;2023-02-08T05:36:49;29.02;;;16.85;;
43744;SDS011;29359;53.048;8.732;2023-02-08T05:38:51;32.42;;;17.60;;
43744;SDS011;29359;53.048;8.732;2023-02-08T05:40:53;31.15;;;17.02;;
43744;SDS011;29359;53.048;8.732;2023-02-08T05:42:55;33.15;;;17.00;;
43744;SDS011;29359;53.048;8.732;2023-02-08T05:44:56;29.75;;;16.27;;
43744;SDS011;29359;53.048;8.732;2023-02-08T05:46:58;29.25;;;16.65;;
43744;SDS011;29359;53.048;8.732;2023-02-08T05:48:59;30.60;;;16.20;;
43744;SDS011;29359;53.048;8.732;2023-02-08T05:51:01;34.67;;;16.67;;
43744;SDS011;29359;53.048;8.732;2023-02-08T05:53:02;37.58;;;16.98;;
43744;SDS011;29359;53.048;8.732;2023-02-08T05:55:04;30.30;;;17.42;;
43744;SDS011;29359;53.048;8.732;2023-02-08T05:57:06;30.65;;;17.77;;
43744;SDS011;29359;53.048;8.732;2023-02-08T05:59:07;33.70;;;18.20;;
43744;SDS011;29359;53.048;8.732;2023-02-08T06:01:10;33.25;;;17.98;;
43744;SDS011;29359;53.048;8.732;2023-02-08T06:03:12;36.53;;;17.95;;
43744;SDS011;29359;53.048;8.732;2023-02-08T06:05:14;31.25;;;17.75;;
43744;SDS011;29359;53.048;8.732;2023-02-08T06:07:16;38.47;;;19.27;;
43744;SDS011;29359;53.048;8.732;2023-02-08T06:09:17;34.30;;;18.38;;
43744;SDS011;29359;53.048;8.732;2023-02-08T06:11:19;35.20;;;18.38;;
43744;SDS011;29359;53.048;8.732;2023-02-08T06:13:20;34.35;;;18.20;;
43744;SDS011;29359;53.048;8.732;2023-02-08T06:15:22;33.15;;;18.92;;
43744;SDS011;29359;53.048;8.732;2023-02-08T06:19:51;35.60;;;17.65;;
43744;SDS011;29359;53.048;8.732;2023-02-08T06:21:53;45.33;;;19.33;;
43744;SDS011;29359;53.048;8.732;2023-02-08T06:23:55;39.97;;;19.38;;
43744;SDS011;29359;53.048;8.732;2023-02-08T06:25:56;36.38;;;19.90;;
43744;SDS011;29359;53.048;8.732;2023-02-08T06:27:58;39.60;;;19.50;;
43744;SDS011;29359;53.048;8.732;2023-02-08T06:29:59;37.47;;;19.10;;
43744;SDS011;29359;53.048;8.732;2023-02-08T06:32:01;36.15;;;18.63;;
43744;SDS011;29359;53.048;8.732;2023-02-08T06:34:03;41.40;;;19.42;;
43744;SDS011;29359;53.048;8.732;2023-02-08T06:36:04;42.90;;;20.88;;
43744;SDS011;29359;53.048;8.732;2023-02-08T06:38:06;43.05;;;21.15;;
43744;SDS011;29359;53.048;8.732;2023-02-08T06:40:08;43.85;;;20.67;;
43744;SDS011;29359;53.048;8.732;2023-02-08T06:42:10;51.60;;;22.08;;
43744;SDS011;29359;53.048;8.732;2023-02-08T06:44:12;50.10;;;22.42;;
43744;SDS011;29359;53.048;8.732;2023-02-08T06:46:13;47.00;;;21.75;;
43744;SDS011;29359;53.048;8.732;2023-02-08T06:48:15;43.22;;;21.13;;
43744;SDS011;29359;53.048;8.732;2023-02-08T06:50:16;37.58;;;20.45;;
43744;SDS011;29359;53.048;8.732;2023-02-08T06:52:18;38.95;;;19.60;;
43744;SDS011;29359;53.048;8.732;2023-02-08T06:54:20;45.50;;;21.67;;
43744;SDS011;29359;53.048;8.732;2023-02-08T06:56:22;43.90;;;22.23;;
43744;SDS011;29359;53.048;8.732;2023-02-08T06:58:24;47.72;;;22.90;;
43744;SDS011;29359;53.048;8.732;2023-02-08T07:00:25;48.05;;;22.25;;
43744;SDS011;29359;53.048;8.732;2023-02-08T07:02:26;45.40;;;22.35;;
43744;SDS011;29359;53.048;8.732;2023-02-08T07:04:28;55.60;;;22.67;;
43744;SDS011;29359;53.048;8.732;2023-02-08T07:06:30;46.20;;;22.42;;
43744;SDS011;29359;53.048;8.732;2023-02-08T07:08:32;51.40;;;22.58;;
43744;SDS011;29359;53.048;8.732;2023-02-08T07:10:34;44.75;;;21.83;;
43744;SDS011;29359;53.048;8.732;2023-02-08T07:12:38;46.20;;;22.27;;
43744;SDS011;29359;53.048;8.732;2023-02-08T07:14:40;48.60;;;23.10;;
43744;SDS011;29359;53.048;8.732;2023-02-08T07:16:43;45.42;;;21.75;;
43744;SDS011;29359;53.048;8.732;2023-02-08T07:18:44;52.28;;;23.60;;
43744;SDS011;29359;53.048;8.732;2023-02-08T07:20:47;51.92;;;23.38;;
43744;SDS011;29359;53.048;8.732;2023-02-08T07:22:49;49.97;;;22.98;;
43744;SDS011;29359;53.048;8.732;2023-02-08T07:24:50;47.70;;;22.77;;
43744;SDS011;29359;53.048;8.732;2023-02-08T07:26:52;53.33;;;23.85;;
43744;SDS011;29359;53.048;8.732;2023-02-08T07:28:53;55.75;;;25.33;;
43744;SDS011;29359;53.048;8.732;2023-02-08T07:30:54;59.13;;;25.02;;
43744;SDS011;29359;53.048;8.732;2023-02-08T07:32:56;59.03;;;25.02;;
43744;SDS011;29359;53.048;8.732;2023-02-08T07:34:57;56.85;;;24.05;;
43744;SDS011;29359;53.048;8.732;2023-02-08T07:36:59;53.80;;;23.73;;
43744;SDS011;29359;53.048;8.732;2023-02-08T07:39:01;53.08;;;23.33;;
43744;SDS011;29359;53.048;8.732;2023-02-08T07:41:03;54.50;;;25.45;;
43744;SDS011;29359;53.048;8.732;2023-02-08T07:43:09;56.50;;;24.55;;
43744;SDS011;29359;53.048;8.732;2023-02-08T07:45:11;52.47;;;25.10;;
43744;SDS011;29359;53.048;8.732;2023-02-08T07:47:12;58.50;;;25.92;;
43744;SDS011;29359;53.048;8.732;2023-02-08T07:49:14;62.65;;;26.50;;
43744;SDS011;29359;53.048;8.732;2023-02-08T07:51:15;61.85;;;26.67;;
43744;SDS011;29359;53.048;8.732;2023-02-08T07:53:17;60.92;;;25.75;;
43744;SDS011;29359;53.048;8.732;2023-02-08T07:55:18;63.85;;;26.45;;
43744;SDS011;29359;53.048;8.732;2023-02-08T07:57:20;52.88;;;24.50;;
43744;SDS011;29359;53.048;8.732;2023-02-08T07:59:22;59.40;;;26.70;;
43744;SDS011;29359;53.048;8.732;2023-02-08T08:01:23;55.90;;;25.85;;
43744;SDS011;29359;53.048;8.732;2023-02-08T08:03:25;62.70;;;26.88;;
43744;SDS011;29359;53.048;8.732;2023-02-08T08:05:27;61.83;;;25.73;;
43744;SDS011;29359;53.048;8.732;2023-02-08T08:07:28;59.63;;;25.70;;
43744;SDS011;29359;53.048;8.732;2023-02-08T08:09:30;60.80;;;26.58;;
43744;SDS011;29359;53.048;8.732;2023-02-08T08:11:32;57.83;;;26.95;;
43744;SDS011;29359;53.048;8.732;2023-02-08T08:13:33;52.88;;;25.13;;
43744;SDS011;29359;53.048;8.732;2023-02-08T08:15:34;58.55;;;26.23;;
43744;SDS011;29359;53.048;8.732;2023-02-08T08:17:36;62.45;;;27.73;;
43744;SDS011;29359;53.048;8.732;2023-02-08T08:19:39;62.33;;;27.35;;
43744;SDS011;29359;53.048;8.732;2023-02-08T08:21:40;60.67;;;26.48;;
43744;SDS011;29359;53.048;8.732;2023-02-08T08:23:42;62.20;;;28.08;;
43744;SDS011;29359;53.048;8.732;2023-02-08T08:25:44;62.65;;;27.13;;
43744;SDS011;29359;53.048;8.732;2023-02-08T08:27:46;63.75;;;27.77;;
43744;SDS011;29359;53.048;8.732;2023-02-08T08:29:47;62.97;;;27.30;;
43744;SDS011;29359;53.048;8.732;2023-02-08T08:31:49;61.17;;;28.52;;
43744;SDS011;29359;53.048;8.732;2023-02-08T08:33:52;63.88;;;27.90;;
43744;SDS011;29359;53.048;8.732;2023-02-08T08:35:53;57.95;;;26.50;;
43744;SDS011;29359;53.048;8.732;2023-02-08T08:37:55;63.83;;;28.20;;
43744;SDS011;29359;53.048;8.732;2023-02-08T08:39:56;66.40;;;29.83;;
43744;SDS011;29359;53.048;8.732;2023-02-08T08:41:58;66.75;;;28.00;;
43744;SDS011;29359;53.048;8.732;2023-02-08T08:44:00;63.17;;;29.02;;
43744;SDS011;29359;53.048;8.732;2023-02-08T08:46:03;61.65;;;28.20;;
43744;SDS011;29359;53.048;8.732;2023-02-08T08:48:06;53.90;;;26.90;;
43744;SDS011;29359;53.048;8.732;2023-02-08T08:50:08;59.30;;;27.38;;
43744;SDS011;29359;53.048;8.732;2023-02-08T08:52:10;60.85;;;27.85;;
43744;SDS011;29359;53.048;8.732;2023-02-08T08:54:12;66.57;;;29.02;;
43744;SDS011;29359;53.048;8.732;2023-02-08T08:56:13;64.70;;;28.65;;
43744;SDS011;29359;53.048;8.732;2023-02-08T08:58:15;67.57;;;29.13;;
43744;SDS011;29359;53.048;8.732;2023-02-08T09:00:17;63.35;;;29.73;;
43744;SDS011;29359;53.048;8.732;2023-02-08T09:02:19;62.25;;;27.90;;
43744;SDS011;29359;53.048;8.732;2023-02-08T09:04:21;60.75;;;27.05;;
43744;SDS011;29359;53.048;8.732;2023-02-08T09:06:22;59.38;;;29.10;;
43744;SDS011;29359;53.048;8.732;2023-02-08T09:08:24;63.40;;;27.42;;
43744;SDS011;29359;53.048;8.732;2023-02-08T09:10:25;63.15;;;28.23;;
43744;SDS011;29359;53.048;8.732;2023-02-08T09:12:27;56.63;;;26.40;;
43744;SDS011;29359;53.048;8.732;2023-02-08T09:14:29;56.65;;;27.50;;
43744;SDS011;29359;53.048;8.732;2023-02-08T09:16:30;63.13;;;28.73;;
43744;SDS011;29359;53.048;8.732;2023-02-08T09:18:33;59.53;;;27.67;;
43744;SDS011;29359;53.048;8.732;2023-02-08T09:20:36;53.58;;;25.95;;
43744;SDS011;29359;53.048;8.732;2023-02-08T09:22:39;60.85;;;26.85;;
43744;SDS011;29359;53.048;8.732;2023-02-08T09:24:40;57.35;;;27.45;;
43744;SDS011;29359;53.048;8.732;2023-02-08T09:26:42;56.33;;;26.23;;
43744;SDS011;29359;53.048;8.732;2023-02-08T09:28:46;62.08;;;26.23;;
43744;SDS011;29359;53.048;8.732;2023-02-08T09:30:47;55.15;;;26.00;;
43744;SDS011;29359;53.048;8.732;2023-02-08T09:32:49;51.85;;;25.52;;
43744;SDS011;29359;53.048;8.732;2023-02-08T09:34:50;53.13;;;25.60;;
43744;SDS011;29359;53.048;8.732;2023-02-08T09:36:51;52.67;;;25.55;;
43744;SDS011;29359;53.048;8.732;2023-02-08T09:38:54;57.60;;;25.48;;
43744;SDS011;29359;53.048;8.732;2023-02-08T09:43:21;48.60;;;22.65;;
43744;SDS011;29359;53.048;8.732;2023-02-08T09:50:26;45.50;;;22.75;;
43744;SDS011;29359;53.048;8.732;2023-02-08T09:52:38;46.25;;;23.77;;
43744;SDS011;29359;53.048;8.732;2023-02-08T09:54:45;56.13;;;24.73;;
43744;SDS011;29359;53.048;8.732;2023-02-08T09:56:52;56.35;;;26.25;;
43744;SDS011;29359;53.048;8.732;2023-02-08T09:58:53;55.67;;;25.80;;
43744;SDS011;29359;53.048;8.732;2023-02-08T10:00:57;54.10;;;26.33;;
43744;SDS011;29359;53.048;8.732;2023-02-08T10:02:59;53.88;;;25.40;;
43744;SDS011;29359;53.048;8.732;2023-02-08T10:05:03;52.40;;;24.25;;
43744;SDS011;29359;53.048;8.732;2023-02-08T10:07:07;52.50;;;25.70;;
43744;SDS011;29359;53.048;8.732;2023-02-08T10:09:11;55.35;;;25.63;;
43744;SDS011;29359;53.048;8.732;2023-02-08T10:21:10;46.42;;;23.42;;
43744;SDS011;29359;53.048;8.732;2023-02-08T10:25:45;47.22;;;22.63;;
43744;SDS011;29359;53.048;8.732;2023-02-08T10:37:35;48.33;;;23.45;;
43744;SDS011;29359;53.048;8.732;2023-02-08T10:39:40;48.35;;;24.30;;
43744;SDS011;29359;53.048;8.732;2023-02-08T10:41:43;45.47;;;24.00;;
43744;SDS011;29359;53.048;8.732;2023-02-08T10:50:38;46.10;;;22.48;;
43744;SDS011;29359;53.048;8.732;2023-02-08T10:52:43;40.80;;;22.30;;
43744;SDS011;29359;53.048;8.732;2023-02-08T10:54:45;42.40;;;21.70;;
43744;SDS011;29359;53.048;8.732;2023-02-08T10:56:50;38.40;;;21.13;;
43744;SDS011;29359;53.048;8.732;2023-02-08T10:58:57;46.10;;;22.45;;
43744;SDS011;29359;53.048;8.732;2023-02-08T11:01:00;43.28;;;20.95;;
43744;SDS011;29359;53.048;8.732;2023-02-08T11:03:14;36.95;;;18.42;;
43744;SDS011;29359;53.048;8.732;2023-02-08T11:05:40;37.20;;;17.90;;
43744;SDS011;29359;53.048;8.732;2023-02-08T11:07:41;30.40;;;16.15;;
43744;SDS011;29359;53.048;8.732;2023-02-08T11:09:42;26.88;;;16.15;;
43744;SDS011;29359;53.048;8.732;2023-02-08T11:11:44;31.42;;;17.10;;
43744;SDS011;29359;53.048;8.732;2023-02-08T11:13:47;32.30;;;17.95;;
43744;SDS011;29359;53.048;8.732;2023-02-08T11:17:59;29.45;;;16.60;;
43744;SDS011;29359;53.048;8.732;2023-02-08T11:20:02;31.77;;;17.30;;
43744;SDS011;29359;53.048;8.732;2023-02-08T11:22:04;26.50;;;15.93;;
43744;SDS011;29359;53.048;8.732;2023-02-08T11:26:55;21.95;;;13.30;;
43744;SDS011;29359;53.048;8.732;2023-02-08T11:29:03;21.98;;;13.95;;
43744;SDS011;29359;53.048;8.732;2023-02-08T11:31:15;20.13;;;12.52;;
43744;SDS011;29359;53.048;8.732;2023-02-08T11:33:21;22.88;;;12.98;;
43744;SDS011;29359;53.048;8.732;2023-02-08T11:35:24;23.40;;;13.90;;
43744;SDS011;29359;53.048;8.732;2023-02-08T11:37:26;24.08;;;14.70;;
43744;SDS011;29359;53.048;8.732;2023-02-08T11:41:50;24.40;;;14.90;;
43744;SDS011;29359;53.048;8.732;2023-02-08T11:44:03;23.27;;;14.88;;
43744;SDS011;29359;53.048;8.732;2023-02-08T11:46:06;24.45;;;14.55;;
43744;SDS011;29359;53.048;8.732;2023-02-08T11:48:20;25.52;;;15.40;;
43744;SDS011;29359;53.048;8.732;2023-02-08T11:50:29;26.33;;;15.60;;
43744;SDS011;29359;53.048;8.732;2023-02-08T11:52:37;24.45;;;15.10;;
43744;SDS011;29359;53.048;8.732;2023-02-08T11:54:43;26.47;;;17.00;;
43744;SDS011;29359;53.048;8.732;2023-02-08T11:56:48;23.15;;;15.65;;
43744;SDS011;29359;53.048;8.732;2023-02-08T12:01:17;26.38;;;16.55;;
43744;SDS011;29359;53.048;8.732;2023-02-08T12:03:22;26.80;;;16.83;;
43744;SDS011;29359;53.048;8.732;2023-02-08T12:05:37;28.08;;;16.88;;
43744;SDS011;29359;53.048;8.732;2023-02-08T12:10:07;27.77;;;17.02;;
43744;SDS011;29359;53.048;8.732;2023-02-08T12:19:05;28.38;;;17.15;;
43744;SDS011;29359;53.048;8.732;2023-02-08T12:21:41;31.17;;;17.02;;
43744;SDS011;29359;53.048;8.732;2023-02-08T12:23:46;26.58;;;16.98;;
43744;SDS011;29359;53.048;8.732;2023-02-08T12:30:33;27.85;;;17.58;;
43744;SDS011;29359;53.048;8.732;2023-02-08T12:39:42;25.23;;;13.38;;
43744;SDS011;29359;53.048;8.732;2023-02-08T12:53:39;17.38;;;11.50;;
43744;SDS011;29359;53.048;8.732;2023-02-08T12:55:53;22.13;;;11.10;;
43744;SDS011;29359;53.048;8.732;2023-02-08T12:57:57;20.65;;;11.38;;
43744;SDS011;29359;53.048;8.732;2023-02-08T13:00:25;24.10;;;12.23;;
43744;SDS011;29359;53.048;8.732;2023-02-08T13:02:37;16.35;;;10.20;;
43744;SDS011;29359;53.048;8.732;2023-02-08T13:04:46;18.23;;;11.75;;
43744;SDS011;29359;53.048;8.732;2023-02-08T13:06:55;18.67;;;11.90;;
43744;SDS011;29359;53.048;8.732;2023-02-08T13:09:02;16.08;;;10.98;;
43744;SDS011;29359;53.048;8.732;2023-02-08T13:13:54;16.67;;;9.90;;
43744;SDS011;29359;53.048;8.732;2023-02-08T13:16:02;14.60;;;10.05;;
43744;SDS011;29359;53.048;8.732;2023-02-08T13:18:17;20.88;;;10.38;;
43744;SDS011;29359;53.048;8.732;2023-02-08T13:23:00;19.75;;;10.70;;
43744;SDS011;29359;53.048;8.732;2023-02-08T13:25:06;18.02;;;11.25;;
43744;SDS011;29359;53.048;8.732;2023-02-08T13:27:16;15.45;;;10.25;;
43744;SDS011;29359;53.048;8.732;2023-02-08T13:29:22;14.10;;;9.82;;
43744;SDS011;29359;53.048;8.732;2023-02-08T13:31:29;14.70;;;10.90;;
43744;SDS011;29359;53.048;8.732;2023-02-08T13:33:47;17.50;;;11.70;;
43744;SDS011;29359;53.048;8.732;2023-02-08T13:36:02;16.55;;;10.75;;
43744;SDS011;29359;53.048;8.732;2023-02-08T13:38:27;16.45;;;11.05;;
43744;SDS011;29359;53.048;8.732;2023-02-08T13:40:35;18.70;;;11.52;;
43744;SDS011;29359;53.048;8.732;2023-02-08T13:42:40;17.25;;;10.63;;
43744;SDS011;29359;53.048;8.732;2023-02-08T13:44:50;17.60;;;11.15;;
43744;SDS011;29359;53.048;8.732;2023-02-08T13:46:55;16.92;;;10.55;;
43744;SDS011;29359;53.048;8.732;2023-02-08T13:48:57;14.48;;;9.85;;
43744;SDS011;29359;53.048;8.732;2023-02-08T13:51:00;17.42;;;11.13;;
43744;SDS011;29359;53.048;8.732;2023-02-08T13:53:03;17.35;;;12.20;;
43744;SDS011;29359;53.048;8.732;2023-02-08T14:02:37;15.93;;;10.15;;
43744;SDS011;29359;53.048;8.732;2023-02-08T14:07:42;17.77;;;10.43;;
43744;SDS011;29359;53.048;8.732;2023-02-08T14:12:22;15.65;;;9.40;;
43744;SDS011;29359;53.048;8.732;2023-02-08T14:14:36;19.20;;;10.40;;
43744;SDS011;29359;53.048;8.732;2023-02-08T14:16:39;19.08;;;9.80;;
43744;SDS011;29359;53.048;8.732;2023-02-08T14:18:53;14.18;;;9.38;;
43744;SDS011;29359;53.048;8.732;2023-02-08T14:21:04;20.27;;;11.68;;
43744;SDS011;29359;53.048;8.732;2023-02-08T14:23:21;18.13;;;12.02;;
43744;SDS011;29359;53.048;8.732;2023-02-08T14:25:41;23.20;;;12.27;;